Time;durP1;ratioP1;P1;durP2;ratioP2;P2;SDS_P1;SDS_P2;PMS_P1;PMS_P2;Temp;Humidity;BMP_temperature;BMP_pressure;BME280_temperature;BME280_humidity;BME280_pressure;Samples;Min_cycle;Max_cycle;Signal;HPM_P1;HPM_P2
2022/09/28 00:02:10;;;;;;;17.92;8.25;;;8.50;99.90;;;;;;5051795;28;20032;-59
2022/09/28 00:04:37;;;;;;;14.27;7.80;;;;;;;;;;5052445;28;20064;-60
2022/09/28 00:07:03;;;;;;;11.18;8.13;;;;;;;;;;5053245;28;20190;-60
2022/09/28 00:09:29;;;;;;;14.13;8.77;;;8.70;99.90;;;;;;5053227;28;20048;-60
2022/09/28 00:11:58;;;;;;;13.18;8.77;;;;;;;;;;5053045;28;20048;-60
2022/09/28 00:14:25;;;;;;;15.73;8.65;;;;;;;;;;5053123;28;20447;-60
2022/09/28 00:16:51;;;;;;;13.23;8.82;;;8.60;99.90;;;;;;5052921;28;20076;-60
2022/09/28 00:19:18;;;;;;;14.35;8.82;;;8.60;99.90;;;;;;5053333;28;20099;-60
2022/09/28 00:21:44;;;;;;;16.20;8.88;;;8.50;99.90;;;;;;5052092;28;20194;-60
2022/09/28 00:24:16;;;;;;;17.98;8.57;;;9.40;99.90;;;;;;5052915;28;20037;-60
2022/09/28 00:26:55;;;;;;;14.18;8.73;;;8.70;99.90;;;;;;5053284;28;20041;-59
2022/09/28 00:29:32;;;;;;;15.40;9.15;;;8.60;99.90;;;;;;5053000;28;20053;-59
2022/09/28 00:32:10;;;;;;;17.60;8.05;;;7.90;99.90;;;;;;5053032;28;20045;-59
2022/09/28 00:34:42;;;;;;;16.42;9.07;;;8.50;99.90;;;;;;5053056;28;20037;-60
2022/09/28 00:37:09;;;;;;;14.65;8.85;;;8.50;99.90;;;;;;5052910;28;20448;-60
2022/09/28 00:39:37;;;;;;;11.45;7.88;;;8.50;99.90;;;;;;5053249;28;20033;-59
2022/09/28 00:42:14;;;;;;;14.98;8.52;;;8.80;99.90;;;;;;5052858;28;20115;-60
2022/09/28 00:44:46;;;;;;;11.93;8.18;;;8.70;99.90;;;;;;5051762;28;20056;-59
2022/09/28 00:47:38;;;;;;;18.20;8.20;;;8.50;99.90;;;;;;5052852;28;20378;-60
2022/09/28 00:50:29;;;;;;;12.75;8.13;;;8.40;99.90;;;;;;5046921;28;20551;-60
2022/09/28 00:53:10;;;;;;;15.85;8.30;;;8.30;99.90;;;;;;5052935;28;20056;-60
2022/09/28 00:55:46;;;;;;;14.30;7.70;;;8.40;99.90;;;;;;5052864;28;20052;-59
2022/09/28 00:58:16;;;;;;;14.85;7.80;;;8.20;99.90;;;;;;5052544;28;20059;-60
2022/09/28 01:00:42;;;;;;;14.45;8.68;;;8.30;99.90;;;;;;5052840;28;20044;-60
2022/09/28 01:03:13;;;;;;;16.02;8.43;;;8.30;99.90;;;;;;5051056;28;20547;-60
2022/09/28 01:05:39;;;;;;;12.05;8.40;;;;;;;;;;5052907;28;20071;-60
2022/09/28 01:08:08;;;;;;;14.30;9.23;;;8.10;99.90;;;;;;5052582;28;20033;-60
2022/09/28 01:10:34;;;;;;;16.45;8.65;;;8.10;99.90;;;;;;5052478;28;20041;-60
2022/09/28 01:13:02;;;;;;;15.55;9.30;;;8.10;99.90;;;;;;5052482;28;20481;-59
2022/09/28 01:15:28;;;;;;;14.70;8.52;;;8.10;99.90;;;;;;5052977;28;20048;-60
2022/09/28 01:18:06;;;;;;;21.23;8.52;;;9.20;99.90;;;;;;5056384;28;20052;-60
2022/09/28 01:20:52;;;;;;;14.52;7.75;;;8.10;99.90;;;;;;5056187;28;20532;-60
2022/09/28 01:23:18;;;;;;;14.02;7.88;;;;;;;;;;5056077;28;20430;-60
2022/09/28 01:26:16;;;;;;;13.75;8.50;;;8.00;99.90;;;;;;5054881;28;20072;-60
2022/09/28 01:28:45;;;;;;;14.05;8.93;;;7.70;99.90;;;;;;5056168;28;20048;-59
2022/09/28 01:31:13;;;;;;;11.82;7.57;;;7.90;99.90;;;;;;5038571;28;20041;-59
2022/09/28 01:33:52;;;;;;;14.07;8.80;;;7.50;99.90;;;;;;5056065;28;20056;-60
2022/09/28 01:36:24;;;;;;;16.00;8.88;;;7.90;99.90;;;;;;5056142;28;20090;-60
2022/09/28 01:38:54;;;;;;;12.95;8.15;;;7.90;99.90;;;;;;5054903;28;20059;-60
2022/09/28 01:41:22;;;;;;;14.57;9.23;;;7.90;99.90;;;;;;5055955;28;20037;-60
2022/09/28 01:43:54;;;;;;;17.63;8.93;;;8.10;99.90;;;;;;5055607;28;20044;-60
2022/09/28 01:46:27;;;;;;;15.98;8.48;;;7.20;99.90;;;;;;5055856;28;20044;-60
2022/09/28 01:48:58;;;;;;;14.05;9.13;;;7.80;99.90;;;;;;5055642;28;20488;-60
2022/09/28 01:51:43;;;;;;;14.52;8.35;;;7.70;99.90;;;;;;5055663;28;20106;-59
2022/09/28 01:54:16;;;;;;;11.45;7.65;;;7.70;99.90;;;;;;5055525;28;20513;-61
2022/09/28 01:56:50;;;;;;;14.68;8.52;;;7.90;99.90;;;;;;5055367;28;20029;-59
2022/09/28 01:59:21;;;;;;;17.13;9.63;;;7.80;99.90;;;;;;5055813;28;20040;-59
2022/09/28 02:02:18;;;;;;;14.70;8.57;;;7.70;99.90;;;;;;5055575;28;20044;-59
2022/09/28 02:05:10;;;;;;;16.42;9.48;;;7.50;99.90;;;;;;5036274;28;20124;-60
2022/09/28 02:07:55;;;;;;;14.07;10.00;;;7.60;99.90;;;;;;5013772;28;20046;-60
2022/09/28 02:10:28;;;;;;;13.98;9.82;;;7.70;99.90;;;;;;5013492;28;20034;-60
2022/09/28 02:13:12;;;;;;;16.70;10.05;;;7.20;99.90;;;;;;5013452;28;20053;-59
2022/09/28 02:15:44;;;;;;;14.27;9.80;;;8.00;99.90;;;;;;5013403;28;20054;-60
2022/09/28 02:18:09;;;;;;;15.73;9.50;;;8.10;99.90;;;;;;5013202;28;20057;-60
2022/09/28 02:20:42;;;;;;;12.63;9.05;;;7.70;99.90;;;;;;5013316;28;20401;-60
2022/09/28 02:23:09;;;;;;;13.27;8.95;;;7.60;99.90;;;;;;5012919;28;20054;-60
2022/09/28 02:25:51;;;;;;;11.73;8.60;;;7.60;99.90;;;;;;4996777;28;20053;-59
2022/09/28 02:28:17;;;;;;;12.30;8.95;;;7.50;99.90;;;;;;5011922;28;20137;-59
2022/09/28 02:30:44;;;;;;;15.68;9.30;;;7.60;99.90;;;;;;5013080;28;20116;-59
2022/09/28 02:33:30;;;;;;;17.27;10.15;;;7.20;99.90;;;;;;5013042;28;20521;-59
2022/09/28 02:35:58;;;;;;;17.40;10.10;;;6.90;99.90;;;;;;5013069;28;20085;-59
2022/09/28 02:38:23;;;;;;;17.15;9.98;;;7.00;99.90;;;;;;5012857;28;20464;-59
2022/09/28 02:41:10;;;;;;;15.15;10.32;;;7.90;99.90;;;;;;5012813;28;20125;-59
2022/09/28 02:44:00;;;;;;;17.00;10.35;;;7.40;99.90;;;;;;5017726;28;20042;-59
2022/09/28 02:47:03;;;;;;;21.00;11.05;;;7.40;99.90;;;;;;5054716;28;20428;-59
2022/09/28 02:49:42;;;;;;;22.30;11.68;;;7.40;99.90;;;;;;5054570;28;20116;-60
2022/09/28 02:52:32;;;;;;;16.60;10.73;;;7.30;99.90;;;;;;5054772;28;20041;-60
2022/09/28 02:55:39;;;;;;;18.77;10.23;;;7.20;99.90;;;;;;5054384;28;20036;-59
2022/09/28 02:58:10;;;;;;;19.95;10.52;;;6.40;99.90;;;;;;5012582;28;20050;-59
2022/09/28 03:01:05;;;;;;;20.73;10.80;;;6.10;99.90;;;;;;5012426;28;20188;-60
2022/09/28 03:03:37;;;;;;;21.55;11.88;;;7.40;99.90;;;;;;5012109;28;20108;-59
2022/09/28 03:06:08;;;;;;;22.00;12.57;;;6.90;99.90;;;;;;4996130;28;20629;-60
2022/09/28 03:08:59;;;;;;;18.70;12.30;;;7.60;99.90;;;;;;5012334;28;20045;-59
2022/09/28 03:11:35;;;;;;;17.50;12.07;;;7.10;99.90;;;;;;5012371;28;20052;-60
2022/09/28 03:14:02;;;;;;;20.95;12.07;;;7.30;99.90;;;;;;5012325;28;20493;-60
2022/09/28 03:16:30;;;;;;;23.63;12.68;;;7.20;99.90;;;;;;5012092;28;20050;-60
2022/09/28 03:18:56;;;;;;;19.23;11.85;;;7.60;99.90;;;;;;5012125;28;20045;-60
2022/09/28 03:21:22;;;;;;;17.45;11.75;;;7.50;99.90;;;;;;5012155;28;20394;-59
2022/09/28 03:23:49;;;;;;;22.67;12.77;;;7.40;99.90;;;;;;5011946;28;20048;-58
2022/09/28 03:26:15;;;;;;;20.25;12.45;;;7.50;99.90;;;;;;5011967;28;20080;-58
2022/09/28 03:28:42;;;;;;;19.00;11.85;;;;;;;;;;4995529;28;20077;-58
2022/09/28 03:31:07;;;;;;;22.23;12.73;;;7.20;99.90;;;;;;5011939;28;20037;-61
2022/09/28 03:33:34;;;;;;;21.52;12.32;;;7.60;99.90;;;;;;5011924;28;20048;-59
2022/09/28 03:36:00;;;;;;;23.70;12.25;;;7.40;99.90;;;;;;5048613;28;20109;-58
2022/09/28 03:38:29;;;;;;;22.70;12.73;;;7.50;99.90;;;;;;5053463;28;20148;-59
2022/09/28 03:40:57;;;;;;;21.38;11.60;;;7.40;99.90;;;;;;5051473;28;20556;-58
2022/09/28 03:43:24;;;;;;;20.33;11.60;;;7.30;99.90;;;;;;5053228;28;20124;-58
2022/09/28 03:45:55;;;;;;;18.27;11.75;;;7.30;99.90;;;;;;5053286;28;20513;-58
2022/09/28 03:48:23;;;;;;;15.55;11.05;;;7.30;99.90;;;;;;5053498;28;20028;-60
2022/09/28 03:50:52;;;;;;;22.63;12.00;;;7.40;99.90;;;;;;5053322;28;20055;-60
2022/09/28 03:53:21;;;;;;;17.00;10.82;;;7.30;99.90;;;;;;5053224;28;20048;-61
2022/09/28 03:55:47;;;;;;;18.48;11.30;;;7.30;99.90;;;;;;5052590;28;20087;-60
2022/09/28 03:58:13;;;;;;;22.13;12.02;;;7.30;99.90;;;;;;5053395;28;20103;-60
2022/09/28 04:00:40;;;;;;;19.65;11.88;;;7.10;99.90;;;;;;5053446;28;20041;-61
2022/09/28 04:03:05;;;;;;;18.13;12.20;;;7.20;99.90;;;;;;5034983;28;20049;-60
2022/09/28 04:05:32;;;;;;;23.50;12.80;;;7.20;99.90;;;;;;5053503;28;20446;-60
2022/09/28 04:07:58;;;;;;;23.90;13.95;;;;;;;;;;5053158;28;20366;-61
2022/09/28 04:10:28;;;;;;;21.58;13.43;;;8.20;99.90;;;;;;5053348;28;20170;-62
2022/09/28 04:12:58;;;;;;;22.67;13.95;;;7.40;99.90;;;;;;5053094;28;20052;-61
2022/09/28 04:15:25;;;;;;;25.27;14.23;;;;;;;;;;5053438;28;20108;-60
2022/09/28 04:17:50;;;;;;;22.95;13.13;;;7.10;99.90;;;;;;5052955;28;20041;-60
2022/09/28 04:20:17;;;;;;;22.15;13.70;;;;;;;;;;5052979;28;20171;-59
2022/09/28 04:22:43;;;;;;;20.23;13.15;;;7.10;99.90;;;;;;5053147;28;20138;-59
2022/09/28 04:25:10;;;;;;;23.48;14.05;;;8.40;99.90;;;;;;5051779;28;20037;-59
2022/09/28 04:30:22;;;;;;;30.80;15.45;;;7.30;99.90;;;;;;5053031;28;20045;-59
2022/09/28 04:32:50;;;;;;;26.95;15.57;;;7.50;99.90;;;;;;5052891;28;20037;-60
2022/09/28 04:35:16;;;;;;;30.52;16.48;;;7.30;99.90;;;;;;5051997;28;20492;-60
2022/09/28 04:37:41;;;;;;;29.95;16.98;;;7.40;99.90;;;;;;5053070;28;20041;-60
2022/09/28 04:40:08;;;;;;;31.85;17.15;;;7.40;99.90;;;;;;5051565;28;20048;-60
2022/09/28 04:42:35;;;;;;;29.25;16.23;;;7.40;99.90;;;;;;5053040;28;20044;-60
2022/09/28 04:45:03;;;;;;;31.05;16.75;;;;;;;;;;5051646;28;20041;-60
2022/09/28 04:47:30;;;;;;;32.63;18.77;;;7.50;99.90;;;;;;5052835;28;20045;-60
2022/09/28 04:49:56;;;;;;;42.45;20.40;;;8.60;99.90;;;;;;5052882;28;20120;-60
2022/09/28 04:52:22;;;;;;;44.83;19.88;;;7.60;99.90;;;;;;5056556;28;20178;-60
2022/09/28 04:54:48;;;;;;;50.97;21.20;;;;;;;;;;5056696;28;20107;-60
2022/09/28 04:57:14;;;;;;;52.85;20.92;;;;;;;;;;5056787;28;20063;-60
2022/09/28 04:59:40;;;;;;;76.50;22.55;;;;;;;;;;5056672;28;20048;-60
2022/09/28 05:02:13;;;;;;;62.95;21.85;;;7.60;99.90;;;;;;5056227;28;20115;-61
2022/09/28 05:04:40;;;;;;;72.47;22.23;;;;;;;;;;5055364;28;20153;-60
2022/09/28 05:07:08;;;;;;;66.97;20.05;;;7.70;99.90;;;;;;5056741;28;20091;-60
2022/09/28 05:09:34;;;;;;;87.53;21.42;;;7.70;99.90;;;;;;5056599;28;20048;-60
2022/09/28 05:12:00;;;;;;;375.40;25.27;;;7.80;99.90;;;;;;5056393;28;20511;-59
2022/09/28 05:14:26;;;;;;;289.25;23.35;;;;;;;;;;5056542;28;20037;-59
2022/09/28 05:16:52;;;;;;;297.35;22.63;;;;;;;;;;5056418;28;20048;-58
2022/09/28 05:19:19;;;;;;;365.70;23.55;;;6.70;99.90;;;;;;5056433;28;20049;-59
2022/09/28 05:21:45;;;;;;;71.90;22.60;;;7.60;99.90;;;;;;5056148;28;20111;-59
2022/09/28 05:24:11;;;;;;;91.25;20.42;;;7.80;99.90;;;;;;5055892;28;20048;-59
2022/09/28 05:26:37;;;;;;;159.45;20.75;;;;;;;;;;5056008;28;20059;-59
2022/09/28 05:29:03;;;;;;;189.32;18.20;;;7.70;99.90;;;;;;5055702;28;20041;-58
2022/09/28 05:31:31;;;;;;;276.90;21.02;;;7.60;99.90;;;;;;5054326;28;20029;-58
2022/09/28 05:33:58;;;;;;;184.10;20.83;;;8.00;99.90;;;;;;5054145;28;20087;-58
2022/09/28 05:36:28;;;;;;;284.00;23.15;;;;;;;;;;5054099;28;20040;-58
2022/09/28 05:38:54;;;;;;;105.50;21.05;;;7.70;99.90;;;;;;5054932;28;20215;-58
2022/09/28 05:41:20;;;;;;;142.02;23.17;;;7.80;99.90;;;;;;5055081;28;20111;-58
2022/09/28 05:43:50;;;;;;;65.53;21.58;;;7.80;99.90;;;;;;5052419;28;20126;-59
2022/09/28 05:46:17;;;;;;;70.10;21.05;;;;;;;;;;5054158;28;20240;-58
2022/09/28 05:48:44;;;;;;;141.07;23.02;;;8.80;99.90;;;;;;5054069;28;20037;-59
2022/09/28 05:51:10;;;;;;;64.47;20.55;;;;;;;;;;5052209;28;20548;-58
2022/09/28 05:53:36;;;;;;;55.50;18.33;;;7.30;99.90;;;;;;5053578;28;20037;-58
2022/09/28 05:56:06;;;;;;;63.58;17.98;;;;;;;;;;5052968;28;20037;-58
2022/09/28 05:58:31;;;;;;;81.75;18.25;;;7.70;99.90;;;;;;5052363;28;20495;-58
2022/09/28 06:00:59;;;;;;;70.50;17.10;;;;;;;;;;5054340;28;20043;-58
2022/09/28 06:03:25;;;;;;;43.08;16.90;;;7.60;99.90;;;;;;5053035;28;20057;-58
2022/09/28 06:05:52;;;;;;;78.72;20.00;;;;;;;;;;5054434;28;20087;-59
2022/09/28 06:08:21;;;;;;;51.22;19.40;;;7.80;99.90;;;;;;5054267;28;20140;-59
2022/09/28 06:10:47;;;;;;;40.15;16.00;;;;;;;;;;5054457;28;20033;-58
2022/09/28 06:13:12;;;;;;;61.20;16.73;;;7.90;99.90;;;;;;5052945;28;20072;-59
2022/09/28 06:15:41;;;;;;;126.13;18.85;;;7.80;99.90;;;;;;5034375;28;20152;-59
2022/09/28 06:18:13;;;;;;;120.93;17.30;;;7.90;99.90;;;;;;5053025;28;20112;-58
2022/09/28 06:20:42;;;;;;;79.25;16.17;;;7.00;99.90;;;;;;5052337;28;20107;-58
2022/09/28 06:23:09;;;;;;;78.85;15.68;;;8.00;99.90;;;;;;5052841;28;20156;-59
2022/09/28 06:25:35;;;;;;;65.00;16.77;;;7.90;99.90;;;;;;5052416;28;20041;-59
2022/09/28 06:28:02;;;;;;;70.50;16.25;;;8.20;99.90;;;;;;5052737;28;20139;-59
2022/09/28 06:30:31;;;;;;;55.78;15.77;;;8.10;99.90;;;;;;5052320;28;20064;-59
2022/09/28 06:32:59;;;;;;;79.20;15.63;;;8.00;99.90;;;;;;5051242;28;20083;-59
2022/09/28 06:35:27;;;;;;;95.70;14.27;;;8.10;99.90;;;;;;5049595;28;20097;-59
2022/09/28 06:37:55;;;;;;;32.55;14.10;;;8.00;99.90;;;;;;5050628;28;20049;-59
2022/09/28 06:40:23;;;;;;;32.53;14.10;;;8.90;99.90;;;;;;5043270;28;20446;-59
2022/09/28 06:43:09;;;;;;;131.02;15.10;;;8.00;99.90;;;;;;5040212;28;20041;-59
2022/09/28 06:45:37;;;;;;;67.78;14.80;;;8.30;99.90;;;;;;5050010;28;20056;-58
2022/09/28 06:48:08;;;;;;;67.00;16.05;;;8.20;99.90;;;;;;5052770;28;20147;-59
2022/09/28 06:50:38;;;;;;;84.68;16.40;;;8.90;99.90;;;;;;5053271;28;20044;-58
2022/09/28 06:53:12;;;;;;;36.85;15.63;;;8.60;99.90;;;;;;5053660;28;20048;-60
2022/09/28 06:55:49;;;;;;;64.38;15.95;;;8.50;99.90;;;;;;5052411;28;20048;-60
2022/09/28 06:58:21;;;;;;;65.90;14.45;;;8.30;99.90;;;;;;5051225;28;20048;-59
2022/09/28 07:00:56;;;;;;;45.17;13.35;;;8.40;99.90;;;;;;5053262;28;20139;-59
2022/09/28 07:03:22;;;;;;;32.95;13.90;;;9.00;99.90;;;;;;5053134;28;20045;-58
2022/09/28 07:05:52;;;;;;;48.53;14.23;;;8.40;99.90;;;;;;5052498;28;20048;-59
2022/09/28 07:08:23;;;;;;;30.63;14.07;;;9.10;99.90;;;;;;5052904;28;20040;-58
2022/09/28 07:10:55;;;;;;;34.67;12.98;;;8.40;99.90;;;;;;5052830;28;20086;-58
2022/09/28 07:13:22;;;;;;;31.70;13.68;;;8.80;99.90;;;;;;5053696;28;20048;-58
2022/09/28 07:15:58;;;;;;;38.50;14.30;;;8.60;99.90;;;;;;5051343;28;20048;-58
2022/09/28 07:18:25;;;;;;;;;;;8.60;99.90;;;;;;5053145;28;20041;-58
2022/09/28 07:20:51;;;;;;;56.90;14.60;;;8.60;99.90;;;;;;5052290;28;20388;-58
2022/09/28 07:23:17;;;;;;;52.03;14.20;;;8.70;99.90;;;;;;5051824;28;20361;-58
2022/09/28 07:25:46;;;;;;;23.73;12.88;;;8.80;99.90;;;;;;5052572;28;20041;-58
2022/09/28 07:28:12;;;;;;;23.02;12.40;;;;;;;;;;5052924;28;20037;-58
2022/09/28 07:30:39;;;;;;;28.20;12.10;;;9.10;99.90;;;;;;5052956;28;20032;-58
2022/09/28 07:33:07;;;;;;;35.88;12.70;;;9.20;99.90;;;;;;5051467;28;20538;-58
2022/09/28 07:35:33;;;;;;;41.60;12.82;;;9.00;99.90;;;;;;5052720;28;20525;-58
2022/09/28 07:38:02;;;;;;;23.77;12.63;;;8.90;99.90;;;;;;5052859;28;20076;-58
2022/09/28 07:43:13;;;;;;;32.30;13.05;;;9.10;99.90;;;;;;5052953;28;20056;-58
2022/09/28 07:45:41;;;;;;;28.10;12.88;;;9.60;99.90;;;;;;5053767;28;20029;-59
2022/09/28 07:48:07;;;;;;;25.40;13.32;;;9.20;99.90;;;;;;5053320;28;20047;-58
2022/09/28 07:50:36;;;;;;;22.10;12.45;;;9.30;99.90;;;;;;5052308;28;20033;-59
2022/09/28 07:53:02;;;;;;;42.08;13.88;;;9.80;99.90;;;;;;5052252;28;20115;-58
2022/09/28 07:55:37;;;;;;;52.23;14.43;;;;;;;;;;5052243;28;20044;-58
2022/09/28 07:58:03;;;;;;;34.72;13.77;;;9.50;99.90;;;;;;5051522;28;20029;-58
2022/09/28 08:00:30;;;;;;;22.48;13.50;;;;;;;;;;5050907;28;20045;-58
2022/09/28 08:03:01;;;;;;;40.15;16.23;;;9.90;99.90;;;;;;5049722;28;20041;-58
2022/09/28 08:05:31;;;;;;;36.20;12.70;;;9.70;99.90;;;;;;5052408;28;20040;-58
2022/09/28 08:07:58;;;;;;;24.98;12.57;;;9.80;99.90;;;;;;5053049;28;20500;-58
2022/09/28 08:10:27;;;;;;;21.70;11.80;;;10.00;99.90;;;;;;5052977;28;20025;-58
2022/09/28 08:13:01;;;;;;;18.67;12.15;;;10.60;99.90;;;;;;5053060;28;20052;-58
2022/09/28 08:15:32;;;;;;;27.50;12.10;;;9.70;99.90;;;;;;5052631;28;20037;-58
2022/09/28 08:17:58;;;;;;;20.65;12.25;;;;;;;;;;5051972;28;20527;-59
2022/09/28 08:23:10;;;;;;;21.77;13.38;;;9.80;99.90;;;;;;5049600;28;20110;-59
2022/09/28 08:25:37;;;;;;;28.17;13.45;;;9.00;99.90;;;;;;5050106;28;20036;-60
2022/09/28 08:28:05;;;;;;;19.70;11.70;;;10.20;99.90;;;;;;5050047;28;20032;-60
2022/09/28 08:30:34;;;;;;;20.85;11.98;;;10.10;99.90;;;;;;5048990;28;20037;-60
2022/09/28 08:33:01;;;;;;;16.33;11.50;;;11.20;99.90;;;;;;5052250;28;20048;-60
2022/09/28 08:35:27;;;;;;;14.95;11.52;;;;;;;;;;5051925;28;20044;-60
2022/09/28 08:37:53;;;;;;;14.80;9.98;;;9.80;99.90;;;;;;5050115;28;20040;-59
2022/09/28 08:40:24;;;;;;;13.02;9.30;;;10.10;99.90;;;;;;5050067;28;20396;-60
2022/09/28 08:43:05;;;;;;;14.98;9.80;;;10.30;99.90;;;;;;5050407;28;20064;-60
2022/09/28 08:45:35;;;;;;;14.13;10.13;;;10.40;99.90;;;;;;5050401;28;20065;-60
2022/09/28 08:48:43;;;;;;;14.32;9.48;;;10.60;99.90;;;;;;5051315;28;20029;-61
2022/09/28 08:51:18;;;;;;;13.32;9.07;;;10.60;99.90;;;;;;5051040;28;20072;-61
2022/09/28 08:54:08;;;;;;;16.40;9.57;;;10.80;99.90;;;;;;5050528;28;20064;-61
2022/09/28 08:56:56;;;;;;;12.18;10.68;;;10.70;99.90;;;;;;5049971;28;20078;-59
2022/09/28 08:59:27;;;;;;;12.05;9.32;;;10.40;99.90;;;;;;5049334;28;20396;-58
2022/09/28 09:02:02;;;;;;;10.77;9.02;;;10.90;99.90;;;;;;5050347;28;20473;-58
2022/09/28 09:04:30;;;;;;;12.18;8.82;;;11.00;99.90;;;;;;5052128;28;20052;-58
2022/09/28 09:07:51;;;;;;;11.90;9.93;;;10.90;99.90;;;;;;5050769;28;20444;-58
2022/09/28 09:10:17;;;;;;;10.32;8.57;;;;;;;;;;5042799;28;20053;-58
2022/09/28 09:13:10;;;;;;;9.80;8.45;;;11.00;99.90;;;;;;5036389;28;20049;-60
2022/09/28 09:16:14;;;;;;;8.75;7.75;;;11.10;99.90;;;;;;5028587;28;20049;-61
2022/09/28 09:18:54;;;;;;;10.25;7.72;;;11.20;99.90;;;;;;4954787;28;20129;-61
2022/09/28 09:21:41;;;;;;;11.77;8.35;;;11.20;99.90;;;;;;4954324;28;20050;-61
2022/09/28 09:24:20;;;;;;;10.25;9.13;;;11.30;99.90;;;;;;4970698;28;20042;-61
2022/09/28 09:26:48;;;;;;;;;;;11.50;99.90;;;;;;4970848;28;20043;-61
2022/09/28 09:30:10;;;;;;;10.60;8.68;;;11.50;99.90;;;;;;4968834;28;20009;-59
2022/09/28 09:33:15;;;;;;;13.32;9.65;;;11.80;99.90;;;;;;4965518;28;20097;-59
2022/09/28 09:36:13;;;;;;;11.38;9.57;;;12.00;99.90;;;;;;4962176;28;20537;-58
2022/09/28 09:38:57;;;;;;;13.02;9.40;;;12.30;99.90;;;;;;4969297;28;20050;-59
2022/09/28 09:41:50;;;;;;;11.73;8.93;;;11.40;99.90;;;;;;4970867;28;20046;-59
2022/09/28 09:44:44;;;;;;;11.82;9.18;;;12.30;99.90;;;;;;4968613;28;20069;-59
2022/09/28 09:47:14;;;;;;;12.63;9.93;;;12.20;99.90;;;;;;4990269;28;20046;-58
2022/09/28 09:50:01;;;;;;;12.13;9.68;;;12.30;99.90;;;;;;4989414;28;20104;-59
2022/09/28 09:52:42;;;;;;;12.68;9.95;;;12.20;99.90;;;;;;5014913;28;20057;-59
2022/09/28 09:55:25;;;;;;;12.60;9.18;;;12.30;99.90;;;;;;5051522;28;20185;-59
2022/09/28 09:58:00;;;;;;;11.65;9.05;;;12.00;99.90;;;;;;5047304;28;20044;-59
2022/09/28 10:00:26;;;;;;;11.77;8.23;;;;;;;;;;5046813;28;20045;-59
2022/09/28 10:02:52;;;;;;;10.23;8.10;;;;;;;;;;5051645;28;20048;-59
2022/09/28 10:05:26;;;;;;;11.98;8.57;;;12.50;99.90;;;;;;5049189;28;20041;-59
2022/09/28 10:07:52;;;;;;;11.23;7.85;;;;;;;;;;5047536;28;20117;-58
2022/09/28 10:11:01;;;;;;;11.35;8.20;;;13.20;99.90;;;;;;5050827;28;20392;-59
2022/09/28 10:13:28;;;;;;;11.82;8.43;;;13.40;99.90;;;;;;5050131;28;20052;-59
2022/09/28 10:15:55;;;;;;;13.20;8.57;;;13.30;99.90;;;;;;5052463;28;20111;-59
2022/09/28 10:18:20;;;;;;;13.95;9.43;;;13.80;99.90;;;;;;5053197;28;20484;-58
2022/09/28 10:20:47;;;;;;;11.07;7.78;;;13.90;99.90;;;;;;5052574;28;20110;-59
2022/09/28 10:23:25;;;;;;;11.40;8.77;;;14.00;99.90;;;;;;5053285;28;20073;-59
2022/09/28 10:25:56;;;;;;;11.25;8.50;;;13.70;99.90;;;;;;5051283;28;20396;-59
2022/09/28 10:28:41;;;;;;;13.05;8.43;;;14.00;99.90;;;;;;5050467;28;20037;-58
2022/09/28 10:31:37;;;;;;;10.90;8.00;;;14.00;99.90;;;;;;5052250;28;20519;-58
2022/09/28 10:34:04;;;;;;;;;;;14.10;99.90;;;;;;5053417;28;20485;-58
2022/09/28 10:36:37;;;;;;;11.50;8.82;;;14.90;99.90;;;;;;5054157;28;19924;-58
2022/09/28 10:39:04;;;;;;;10.40;8.38;;;14.10;99.90;;;;;;5055006;28;20044;-58
2022/09/28 10:41:31;;;;;;;9.98;7.80;;;15.00;99.90;;;;;;5054778;28;20102;-58
2022/09/28 10:44:06;;;;;;;13.77;8.40;;;14.00;99.90;;;;;;5048985;28;20053;-58
2022/09/28 10:46:37;;;;;;;9.90;7.80;;;14.00;99.90;;;;;;5041587;28;20038;-58
2022/09/28 10:49:15;;;;;;;10.73;7.68;;;14.60;99.90;;;;;;5052972;28;20079;-58
2022/09/28 10:51:42;;;;;;;8.27;6.75;;;14.80;99.90;;;;;;5053539;28;20041;-58
2022/09/28 10:54:19;;;;;;;9.00;6.82;;;14.50;99.90;;;;;;5052297;28;20049;-58
2022/09/28 10:56:48;;;;;;;10.80;6.57;;;14.40;99.90;;;;;;5053738;28;20068;-59
2022/09/28 10:59:29;;;;;;;9.93;7.10;;;14.90;99.90;;;;;;5041320;28;20064;-58
2022/09/28 11:01:58;;;;;;;8.98;6.90;;;14.70;99.90;;;;;;5052996;28;20116;-58
2022/09/28 11:04:27;;;;;;;11.70;6.53;;;14.70;99.90;;;;;;5051808;28;20092;-60
2022/09/28 11:06:58;;;;;;;7.80;6.20;;;14.50;99.90;;;;;;5053151;28;20451;-62
2022/09/28 11:09:47;;;;;;;8.25;6.10;;;14.80;99.90;;;;;;5052412;28;20059;-63
2022/09/28 11:12:19;;;;;;;8.02;6.03;;;14.50;99.90;;;;;;5053209;28;20127;-62
2022/09/28 11:14:51;;;;;;;7.57;5.90;;;14.40;99.90;;;;;;5053377;28;20049;-61
2022/09/28 11:17:17;;;;;;;7.38;5.20;;;;;;;;;;5051703;28;20347;-60
2022/09/28 11:19:45;;;;;;;8.10;6.00;;;14.70;99.90;;;;;;5053465;28;20056;-61
2022/09/28 11:22:33;;;;;;;9.05;6.90;;;14.30;99.90;;;;;;5052539;28;20057;-61
2022/09/28 11:25:17;;;;;;;8.80;6.75;;;14.90;99.90;;;;;;5054305;28;20103;-61
2022/09/28 11:27:51;;;;;;;7.32;6.18;;;14.90;99.90;;;;;;5054071;28;20145;-61
2022/09/28 11:30:47;;;;;;;8.18;6.10;;;15.40;99.90;;;;;;5054257;28;20041;-62
2022/09/28 11:33:19;;;;;;;6.75;5.72;;;14.90;99.90;;;;;;5054448;28;20149;-61
2022/09/28 11:36:23;;;;;;;8.82;5.63;;;15.10;99.90;;;;;;5053900;28;20084;-61
2022/09/28 11:39:16;;;;;;;7.53;5.70;;;15.80;99.90;;;;;;5053974;28;20036;-61
2022/09/28 11:42:06;;;;;;;8.35;6.10;;;15.70;99.90;;;;;;5053983;28;20037;-62
2022/09/28 11:44:43;;;;;;;7.70;5.28;;;15.50;99.90;;;;;;5052901;28;20055;-62
2022/09/28 11:47:35;;;;;;;9.07;4.72;;;15.60;99.90;;;;;;5041373;28;20040;-62
2022/09/28 11:50:07;;;;;;;6.80;4.38;;;15.90;99.90;;;;;;5040454;28;20041;-62
2022/09/28 11:53:18;;;;;;;4.65;3.90;;;16.20;99.90;;;;;;5046077;28;20094;-62
2022/09/28 11:56:01;;;;;;;8.43;3.70;;;16.30;99.90;;;;;;5031257;28;20045;-62
2022/09/28 11:58:47;;;;;;;9.38;4.28;;;16.90;99.90;;;;;;5031445;28;20563;-63
2022/09/28 12:01:28;;;;;;;7.68;3.63;;;16.40;99.90;;;;;;5023793;28;20098;-65
2022/09/28 12:04:25;;;;;;;5.65;3.95;;;16.20;99.90;;;;;;5050794;28;20053;-62
2022/09/28 12:07:00;;;;;;;4.82;3.20;;;16.40;99.90;;;;;;5046094;28;20079;-63
2022/09/28 12:09:45;;;;;;;4.10;3.50;;;16.20;99.90;;;;;;5051122;28;20052;-62
2022/09/28 12:12:26;;;;;;;5.25;3.17;;;16.20;99.90;;;;;;5051017;28;20068;-62
2022/09/28 12:14:57;;;;;;;5.15;3.42;;;16.30;99.90;;;;;;5050732;28;20037;-62
2022/09/28 12:17:30;;;;;;;5.53;2.90;;;16.50;99.90;;;;;;5050545;28;20041;-59
2022/09/28 12:20:15;;;;;;;4.38;3.00;;;16.70;99.90;;;;;;5050786;28;20479;-59
2022/09/28 12:23:07;;;;;;;5.75;2.75;;;16.70;99.90;;;;;;5050408;28;20049;-59
2022/09/28 12:26:03;;;;;;;5.95;3.25;;;16.80;99.90;;;;;;5041301;28;20117;-59
2022/09/28 12:28:39;;;;;;;5.90;2.85;;;16.80;99.90;;;;;;5034108;28;20049;-59
2022/09/28 12:31:16;;;;;;;5.80;2.80;;;16.90;99.90;;;;;;5053225;28;20043;-59
2022/09/28 12:33:46;;;;;;;6.72;3.03;;;17.20;99.90;;;;;;5052772;28;20041;-59
2022/09/28 12:36:57;;;;;;;6.20;2.78;;;17.00;99.90;;;;;;5052717;28;20052;-59
2022/09/28 12:40:00;;;;;;;4.03;2.55;;;17.50;99.90;;;;;;5050409;28;20405;-59
2022/09/28 12:42:51;;;;;;;5.07;2.70;;;17.90;99.90;;;;;;5031345;28;20038;-59
2022/09/28 12:46:01;;;;;;;4.47;2.20;;;17.60;99.90;;;;;;5033155;28;20052;-59
2022/09/28 12:48:44;;;;;;;2.70;2.08;;;18.00;99.90;;;;;;5032526;28;20092;-60
2022/09/28 12:51:30;;;;;;;2.70;2.20;;;17.70;99.90;;;;;;5033084;28;20077;-59
2022/09/28 12:54:19;;;;;;;4.40;2.25;;;17.50;99.90;;;;;;5050139;28;20124;-59
2022/09/28 12:57:07;;;;;;;4.13;2.40;;;18.00;99.90;;;;;;5051649;28;20045;-59
2022/09/28 12:59:42;;;;;;;2.95;2.10;;;18.10;99.90;;;;;;5052847;28;20056;-59
2022/09/28 13:02:08;;;;;;;;;;;18.10;99.90;;;;;;5051719;28;20063;-59
2022/09/28 13:04:52;;;;;;;;;;;17.90;99.90;;;;;;5052659;28;20351;-59
2022/09/28 13:07:18;;;;;;;5.30;2.00;;;;;;;;;;5052437;28;20323;-59
2022/09/28 13:10:17;;;;;;;29.75;2.70;;;17.60;99.90;;;;;;5052416;28;20452;-59
2022/09/28 13:13:26;;;;;;;34.80;2.70;;;17.20;99.90;;;;;;5055188;28;20045;-59
2022/09/28 13:16:16;;;;;;;6.45;3.30;;;17.10;99.90;;;;;;5056424;28;20037;-59
2022/09/28 13:19:04;;;;;;;3.03;1.80;;;17.20;99.90;;;;;;5056267;28;20040;-59
2022/09/28 13:21:53;;;;;;;4.97;1.80;;;16.90;99.90;;;;;;5056185;28;20033;-59
2022/09/28 13:24:27;;;;;;;10.90;2.00;;;17.10;99.90;;;;;;5055054;28;20037;-59
2022/09/28 13:26:58;;;;;;;3.10;1.60;;;17.00;99.90;;;;;;5056213;28;20116;-59
2022/09/28 13:29:25;;;;;;;3.42;1.42;;;16.50;99.90;;;;;;5056495;28;20463;-59
2022/09/28 13:31:57;;;;;;;10.85;1.60;;;16.30;99.90;;;;;;5056084;28;20549;-59
2022/09/28 13:34:34;;;;;;;13.13;1.65;;;16.20;99.90;;;;;;5056232;28;20037;-59
2022/09/28 13:37:08;;;;;;;2.75;1.30;;;16.60;99.90;;;;;;5056278;28;20079;-59
2022/09/28 13:39:43;;;;;;;4.88;1.60;;;16.10;99.90;;;;;;5055005;28;20440;-59